Time;durP1;ratioP1;P1;durP2;ratioP2;P2;SDS_P1;SDS_P2;PMS_P1;PMS_P2;Temp;Humidity;BMP_temperature;BMP_pressure;BME280_temperature;BME280_humidity;BME280_pressure;Samples;Min_cycle;Max_cycle;Signal;HPM_P1;HPM_P2
2024/03/27 00:00:58;;;;;;;20.92;9.52;;;4.30;99.90;;;;;;4993243;28;20475;-77
2024/03/27 00:03:24;;;;;;;13.02;7.50;;;4.30;99.90;;;;;;4975699;28;20033;-77
2024/03/27 00:05:49;;;;;;;15.88;9.35;;;4.40;99.90;;;;;;4975400;28;20555;-78
2024/03/27 00:08:15;;;;;;;12.20;7.88;;;4.50;99.90;;;;;;4975446;28;20037;-77
2024/03/27 00:10:41;;;;;;;20.55;9.45;;;4.50;99.90;;;;;;4975618;28;20011;-77
2024/03/27 00:13:06;;;;;;;16.80;8.30;;;4.50;99.90;;;;;;4975503;28;20022;-77
2024/03/27 00:15:32;;;;;;;15.50;8.15;;;4.60;99.60;;;;;;4992889;28;20045;-78
2024/03/27 00:17:58;;;;;;;11.38;7.13;;;4.70;98.30;;;;;;4974849;28;20029;-78
2024/03/27 00:20:24;;;;;;;13.20;7.45;;;4.70;96.70;;;;;;4992914;28;20054;-78
2024/03/27 00:22:50;;;;;;;16.55;9.05;;;4.80;95.40;;;;;;4975150;28;20468;-78
2024/03/27 00:25:15;;;;;;;16.00;7.63;;;4.80;93.40;;;;;;4975050;28;20061;-78
2024/03/27 00:27:41;;;;;;;12.18;7.03;;;4.80;93.30;;;;;;4975492;28;20026;-77
2024/03/27 00:30:09;;;;;;;13.35;6.78;;;4.80;92.40;;;;;;4975225;28;20023;-77
2024/03/27 00:32:35;;;;;;;15.45;6.95;;;4.90;91.50;;;;;;4992980;28;20022;-77
2024/03/27 00:35:01;;;;;;;11.43;7.40;;;4.90;91.20;;;;;;4975075;28;20387;-78
2024/03/27 00:37:27;;;;;;;12.13;7.22;;;4.90;90.40;;;;;;4975276;28;20023;-78
2024/03/27 00:39:53;;;;;;;12.82;6.40;;;4.90;89.70;;;;;;4975169;28;20027;-78
2024/03/27 00:42:18;;;;;;;11.43;7.28;;;4.90;89.40;;;;;;4975328;28;20018;-78
2024/03/27 00:44:44;;;;;;;12.65;7.03;;;4.90;88.50;;;;;;4975192;28;20034;-78
2024/03/27 00:47:10;;;;;;;16.30;7.82;;;4.80;88.00;;;;;;4992351;28;20468;-78
2024/03/27 00:49:36;;;;;;;19.27;11.30;;;4.80;88.30;;;;;;4972832;28;20030;-78
2024/03/27 00:52:02;;;;;;;18.48;8.88;;;4.80;89.10;;;;;;4991949;28;20077;-78
2024/03/27 00:54:28;;;;;;;13.27;6.82;;;4.80;89.00;;;;;;4990636;28;20019;-78
2024/03/27 00:56:54;;;;;;;10.80;7.13;;;4.80;88.90;;;;;;4991071;28;20510;-78
2024/03/27 00:59:21;;;;;;;9.18;5.45;;;4.80;88.70;;;;;;4992032;28;20019;-78
2024/03/27 01:01:46;;;;;;;13.45;6.80;;;4.80;88.60;;;;;;4974893;28;20026;-78
2024/03/27 01:04:12;;;;;;;9.00;5.72;;;4.80;87.70;;;;;;4974742;28;20041;-78
2024/03/27 01:06:38;;;;;;;10.38;5.78;;;4.80;87.20;;;;;;4975114;28;20478;-77
2024/03/27 01:09:06;;;;;;;7.28;5.30;;;4.80;86.60;;;;;;4974675;28;20511;-77
2024/03/27 01:11:32;;;;;;;7.43;5.43;;;4.90;85.60;;;;;;4992519;28;20021;-78
2024/03/27 01:13:59;;;;;;;10.13;5.80;;;4.90;85.80;;;;;;4992150;28;20109;-78
2024/03/27 01:16:25;;;;;;;9.30;5.57;;;4.90;85.00;;;;;;4974584;28;20046;-78
2024/03/27 01:18:50;;;;;;;9.18;5.55;;;4.90;84.20;;;;;;4992455;28;20026;-78
2024/03/27 01:21:16;;;;;;;11.32;6.28;;;4.90;84.20;;;;;;4974685;28;20101;-78
2024/03/27 01:23:42;;;;;;;9.80;6.10;;;4.90;84.10;;;;;;4975130;28;20053;-77
2024/03/27 01:26:07;;;;;;;11.75;6.65;;;4.90;83.40;;;;;;4992195;28;20034;-78
2024/03/27 01:28:33;;;;;;;13.02;6.35;;;4.90;83.60;;;;;;4994193;28;20025;-77
2024/03/27 01:30:58;;;;;;;8.80;4.97;;;4.90;83.10;;;;;;4995682;28;20030;-78
2024/03/27 01:33:24;;;;;;;7.28;5.30;;;4.90;82.70;;;;;;4978527;28;20022;-78
2024/03/27 01:35:50;;;;;;;7.30;5.05;;;4.90;82.70;;;;;;4978488;28;20101;-78
2024/03/27 01:38:16;;;;;;;8.15;5.00;;;4.90;83.10;;;;;;4995530;28;20022;-77
2024/03/27 01:40:42;;;;;;;7.40;5.15;;;4.90;82.60;;;;;;4978344;28;20092;-78
2024/03/27 01:43:07;;;;;;;7.70;4.93;;;4.90;83.10;;;;;;4995621;28;20033;-78
2024/03/27 01:45:34;;;;;;;9.57;5.47;;;4.90;83.10;;;;;;4978287;28;20106;-78
2024/03/27 01:48:00;;;;;;;8.38;5.40;;;4.80;83.10;;;;;;4978495;28;20027;-78
2024/03/27 01:50:28;;;;;;;7.13;5.55;;;4.80;83.30;;;;;;4995463;28;20097;-78
2024/03/27 01:52:57;;;;;;;8.02;4.97;;;4.80;83.40;;;;;;4977881;28;20464;-78
2024/03/27 01:55:23;;;;;;;8.07;4.53;;;4.90;82.90;;;;;;4977597;28;20038;-78
2024/03/27 01:57:49;;;;;;;7.28;4.03;;;4.90;82.70;;;;;;4978212;28;20484;-78
2024/03/27 02:00:16;;;;;;;7.38;4.60;;;5.00;80.90;;;;;;4977590;28;20038;-77
2024/03/27 02:02:42;;;;;;;6.18;4.25;;;5.00;80.50;;;;;;4978049;28;20086;-78
2024/03/27 02:05:08;;;;;;;9.98;5.32;;;5.00;80.10;;;;;;4977140;28;20408;-78
2024/03/27 02:07:37;;;;;;;10.50;4.53;;;5.00;80.10;;;;;;4976114;28;20028;-77
2024/03/27 02:10:03;;;;;;;10.25;4.80;;;5.00;79.70;;;;;;4994980;28;20019;-78
2024/03/27 02:12:29;;;;;;;8.90;4.95;;;5.00;79.30;;;;;;4977870;28;20069;-78
2024/03/27 02:14:54;;;;;;;8.18;5.03;;;5.00;79.70;;;;;;4977635;28;20033;-78
2024/03/27 02:17:20;;;;;;;7.45;5.35;;;4.90;79.50;;;;;;4974067;28;20051;-78
2024/03/27 02:19:46;;;;;;;9.70;5.45;;;4.80;79.90;;;;;;4974479;28;20059;-78
2024/03/27 02:22:11;;;;;;;9.15;5.65;;;4.80;80.10;;;;;;4974961;28;20481;-77
2024/03/27 02:24:37;;;;;;;9.63;5.35;;;4.80;81.10;;;;;;4974160;28;20069;-78
2024/03/27 02:27:04;;;;;;;8.52;5.72;;;4.70;82.30;;;;;;4973059;28;20038;-78
2024/03/27 02:29:30;;;;;;;7.82;5.32;;;4.60;83.10;;;;;;4974001;28;20023;-78
2024/03/27 02:31:55;;;;;;;6.18;4.55;;;4.70;83.80;;;;;;4974066;28;20034;-77
2024/03/27 02:34:21;;;;;;;9.13;5.43;;;4.70;82.80;;;;;;4974119;28;20085;-77
2024/03/27 02:36:46;;;;;;;8.35;4.93;;;4.70;82.10;;;;;;4972751;28;20110;-78
2024/03/27 02:39:12;;;;;;;8.95;5.43;;;4.80;81.80;;;;;;4972370;28;20158;-78
2024/03/27 02:41:37;;;;;;;8.25;5.45;;;4.80;81.40;;;;;;4973538;28;20026;-78
2024/03/27 02:44:03;;;;;;;13.15;4.90;;;4.80;80.50;;;;;;4973975;28;20031;-78
2024/03/27 02:46:29;;;;;;;11.38;6.65;;;4.80;80.00;;;;;;4973871;28;20034;-78
2024/03/27 02:48:54;;;;;;;7.50;5.35;;;4.70;79.90;;;;;;4967744;28;20481;-78
2024/03/27 02:51:20;;;;;;;7.80;4.95;;;4.60;79.90;;;;;;4964682;28;20031;-78
2024/03/27 02:53:46;;;;;;;9.02;4.40;;;4.60;80.10;;;;;;4973218;28;20015;-78
2024/03/27 02:56:11;;;;;;;10.43;6.00;;;4.50;81.00;;;;;;4974612;28;20366;-78
2024/03/27 02:58:37;;;;;;;6.93;5.05;;;4.50;81.20;;;;;;4973897;28;20026;-78
2024/03/27 03:01:03;;;;;;;10.23;5.65;;;4.50;81.40;;;;;;4973273;28;20540;-78
2024/03/27 03:03:28;;;;;;;7.15;4.75;;;4.40;81.60;;;;;;4973803;28;20058;-77
2024/03/27 03:05:54;;;;;;;9.77;4.50;;;4.30;82.90;;;;;;4974629;28;20035;-77
2024/03/27 03:08:20;;;;;;;7.57;5.25;;;4.30;83.30;;;;;;4973692;28;20365;-77
2024/03/27 03:10:45;;;;;;;9.13;4.90;;;4.20;83.70;;;;;;4974807;28;20030;-78
2024/03/27 03:13:11;;;;;;;9.52;5.25;;;4.20;83.70;;;;;;4973498;28;20468;-78
2024/03/27 03:15:36;;;;;;;13.00;5.57;;;4.20;83.50;;;;;;4973363;28;20047;-78
2024/03/27 03:18:02;;;;;;;8.82;4.80;;;4.20;82.90;;;;;;4973415;28;20030;-78
2024/03/27 03:20:28;;;;;;;9.68;4.38;;;4.20;82.50;;;;;;4974440;28;20511;-78
2024/03/27 03:22:53;;;;;;;6.53;4.15;;;4.20;82.80;;;;;;4973384;28;20023;-78
2024/03/27 03:25:19;;;;;;;6.63;5.13;;;4.20;82.80;;;;;;4973281;28;20427;-78
2024/03/27 03:27:45;;;;;;;8.32;5.05;;;4.20;83.10;;;;;;4973249;28;20125;-78
2024/03/27 03:30:11;;;;;;;6.60;4.40;;;4.10;83.20;;;;;;4974380;28;20022;-78
2024/03/27 03:32:37;;;;;;;6.35;4.60;;;4.10;82.80;;;;;;4973195;28;20029;-78
2024/03/27 03:35:03;;;;;;;8.85;5.15;;;4.10;82.80;;;;;;4974172;28;20161;-78
2024/03/27 03:37:29;;;;;;;7.35;4.50;;;4.10;82.30;;;;;;4989309;28;20027;-78
2024/03/27 03:39:55;;;;;;;7.85;4.88;;;4.10;82.40;;;;;;4974377;28;20027;-78
2024/03/27 03:42:21;;;;;;;5.80;4.38;;;4.10;82.40;;;;;;4972596;28;20105;-78
2024/03/27 03:44:46;;;;;;;5.70;4.40;;;4.00;82.30;;;;;;4972927;28;20134;-78
2024/03/27 03:47:12;;;;;;;12.73;5.55;;;4.00;82.90;;;;;;4974123;28;20055;-78
2024/03/27 03:49:38;;;;;;;10.23;5.30;;;4.00;83.00;;;;;;4974081;28;20027;-78
2024/03/27 03:52:03;;;;;;;10.55;5.75;;;4.00;82.50;;;;;;4971813;28;20026;-78
2024/03/27 03:54:29;;;;;;;8.13;5.50;;;4.00;81.80;;;;;;4972944;28;20034;-78
2024/03/27 03:56:55;;;;;;;5.53;4.15;;;4.00;81.40;;;;;;4972483;28;20026;-79
2024/03/27 03:59:20;;;;;;;6.47;3.95;;;4.00;80.80;;;;;;4988966;28;20023;-79
2024/03/27 04:01:46;;;;;;;6.55;4.40;;;4.10;80.20;;;;;;4972555;28;20027;-79
2024/03/27 04:04:12;;;;;;;4.05;3.40;;;4.20;80.10;;;;;;4988670;28;20089;-79
2024/03/27 04:06:37;;;;;;;4.88;3.72;;;4.30;80.10;;;;;;4972256;28;20074;-79
2024/03/27 04:09:03;;;;;;;7.78;4.65;;;4.30;79.30;;;;;;4972553;28;20496;-79
2024/03/27 04:11:29;;;;;;;5.30;3.50;;;4.40;78.70;;;;;;4973898;28;20031;-79
2024/03/27 04:13:54;;;;;;;7.07;4.07;;;4.40;77.90;;;;;;4972535;28;20599;-79
2024/03/27 04:16:20;;;;;;;5.80;4.03;;;4.30;77.40;;;;;;4972405;28;20075;-79
2024/03/27 04:18:45;;;;;;;13.13;4.47;;;4.30;77.80;;;;;;4972368;28;20027;-79
2024/03/27 04:21:11;;;;;;;8.65;4.80;;;4.20;79.20;;;;;;4972446;28;20026;-79
2024/03/27 04:23:37;;;;;;;6.07;3.80;;;4.20;79.80;;;;;;4973680;28;20022;-78
2024/03/27 04:26:03;;;;;;;7.78;4.28;;;4.30;79.80;;;;;;4973165;28;20492;-79
2024/03/27 04:28:30;;;;;;;8.95;4.82;;;4.20;79.60;;;;;;4971896;28;20029;-78
2024/03/27 04:30:56;;;;;;;5.40;4.20;;;4.20;79.90;;;;;;4972304;28;20031;-79
2024/03/27 04:33:22;;;;;;;6.72;4.10;;;4.20;79.50;;;;;;4972485;28;20038;-78
2024/03/27 04:35:48;;;;;;;12.68;5.95;;;4.10;79.60;;;;;;4972259;28;20121;-78
2024/03/27 04:38:15;;;;;;;5.15;3.95;;;4.10;79.90;;;;;;4972009;28;20114;-78
2024/03/27 04:40:41;;;;;;;6.97;4.38;;;4.00;79.80;;;;;;4972142;28;20106;-79
2024/03/27 04:43:06;;;;;;;6.30;4.20;;;4.00;80.10;;;;;;4973317;28;20473;-79
2024/03/27 04:45:32;;;;;;;5.88;4.07;;;4.00;81.00;;;;;;4972212;28;20061;-79
2024/03/27 04:47:58;;;;;;;8.55;4.47;;;3.90;81.40;;;;;;4971978;28;20030;-79
2024/03/27 04:50:24;;;;;;;8.25;4.78;;;3.90;81.80;;;;;;4973363;28;20029;-79
2024/03/27 04:52:50;;;;;;;7.13;5.07;;;3.90;82.20;;;;;;4971937;28;20034;-78
2024/03/27 04:55:16;;;;;;;5.75;4.03;;;3.90;82.10;;;;;;4972047;28;20134;-78
2024/03/27 04:57:42;;;;;;;6.72;4.18;;;3.90;82.80;;;;;;4971643;28;20023;-79
2024/03/27 05:00:12;;;;;;;8.15;4.32;;;4.00;84.00;;;;;;4968765;28;20031;-78
2024/03/27 05:02:40;;;;;;;7.53;3.80;;;4.00;84.70;;;;;;4969454;28;20061;-79
2024/03/27 05:05:06;;;;;;;6.90;4.00;;;4.00;85.50;;;;;;4957764;28;20122;-78
2024/03/27 05:07:32;;;;;;;4.38;3.90;;;4.00;86.10;;;;;;4957878;28;20059;-79
2024/03/27 05:09:58;;;;;;;6.35;3.97;;;4.10;86.00;;;;;;4972548;28;20031;-78
2024/03/27 05:12:24;;;;;;;5.32;3.80;;;4.10;85.50;;;;;;4957754;28;20492;-78
2024/03/27 05:14:49;;;;;;;4.00;3.40;;;4.10;85.30;;;;;;4956375;28;20114;-78
2024/03/27 05:17:16;;;;;;;4.70;3.50;;;4.20;84.70;;;;;;4993673;28;20148;-79
2024/03/27 05:19:42;;;;;;;7.25;3.95;;;4.20;85.20;;;;;;4996290;28;20031;-78
2024/03/27 05:22:15;;;;;;;5.95;4.10;;;4.20;84.40;;;;;;4996183;28;20077;-77
2024/03/27 05:24:41;;;;;;;4.95;3.88;;;4.30;84.80;;;;;;4994860;28;20031;-78
2024/03/27 05:27:08;;;;;;;4.90;4.07;;;4.30;84.60;;;;;;4996202;28;20062;-78
2024/03/27 05:29:33;;;;;;;7.03;5.20;;;4.30;84.60;;;;;;4995921;28;20034;-79
2024/03/27 05:31:59;;;;;;;5.90;4.63;;;4.30;84.50;;;;;;4996052;28;20026;-78
2024/03/27 05:34:25;;;;;;;9.07;4.00;;;4.40;84.00;;;;;;4996055;28;20027;-79
2024/03/27 05:36:51;;;;;;;6.65;4.30;;;4.50;84.00;;;;;;4977891;28;20471;-78
2024/03/27 05:39:16;;;;;;;7.53;4.13;;;4.60;84.00;;;;;;4995775;28;20080;-78
2024/03/27 05:41:43;;;;;;;7.82;4.50;;;4.60;84.00;;;;;;4995877;28;20453;-79
2024/03/27 05:44:09;;;;;;;8.60;4.65;;;4.70;84.50;;;;;;4978045;28;20057;-78
2024/03/27 05:46:36;;;;;;;7.05;3.65;;;4.80;83.50;;;;;;4978427;28;20113;-78
2024/03/27 05:49:02;;;;;;;3.88;3.40;;;4.90;82.20;;;;;;4977806;28;20034;-78
2024/03/27 05:51:29;;;;;;;4.90;3.30;;;5.10;81.70;;;;;;4978366;28;20011;-78
2024/03/27 05:53:55;;;;;;;6.55;3.72;;;5.20;80.90;;;;;;4995525;28;20026;-78
2024/03/27 05:56:22;;;;;;;7.47;3.58;;;5.30;80.10;;;;;;4995387;28;20037;-79
2024/03/27 05:58:49;;;;;;;5.43;3.78;;;5.50;79.80;;;;;;4978090;28;20603;-78
2024/03/27 06:01:14;;;;;;;4.63;3.72;;;5.60;78.20;;;;;;4977724;28;20050;-78
2024/03/27 06:03:41;;;;;;;6.65;3.58;;;5.70;78.00;;;;;;4978038;28;20104;-78
2024/03/27 06:06:07;;;;;;;5.20;4.00;;;5.90;78.00;;;;;;4994568;28;20030;-78
2024/03/27 06:08:33;;;;;;;5.50;3.35;;;5.90;77.30;;;;;;4995098;28;20025;-78
2024/03/27 06:10:58;;;;;;;7.05;3.03;;;6.10;76.50;;;;;;4995252;28;20019;-78
2024/03/27 06:13:24;;;;;;;4.47;3.47;;;6.20;75.20;;;;;;4977136;28;20029;-78
2024/03/27 06:15:50;;;;;;;4.03;2.70;;;6.40;74.20;;;;;;4976130;28;20137;-78
2024/03/27 06:18:15;;;;;;;5.10;3.17;;;6.60;73.10;;;;;;4976390;28;20026;-78
2024/03/27 06:20:42;;;;;;;3.53;2.50;;;6.70;71.80;;;;;;4994697;28;20022;-78
2024/03/27 06:23:08;;;;;;;3.58;2.53;;;6.90;70.20;;;;;;4977663;28;20023;-78
2024/03/27 06:25:34;;;;;;;8.18;4.80;;;7.10;69.40;;;;;;4976928;28;20038;-78
2024/03/27 06:27:59;;;;;;;6.22;3.97;;;7.30;70.10;;;;;;4976068;28;20515;-78
2024/03/27 06:30:25;;;;;;;5.03;3.92;;;7.40;71.40;;;;;;4976019;28;20100;-79
2024/03/27 06:32:51;;;;;;;5.88;3.97;;;7.40;72.00;;;;;;4969832;28;20034;-78
2024/03/27 06:35:21;;;;;;;6.63;3.45;;;7.50;72.50;;;;;;4976160;28;20030;-81
2024/03/27 06:37:46;;;;;;;6.55;2.83;;;7.60;72.60;;;;;;4975881;28;20014;-80
2024/03/27 06:40:12;;;;;;;3.95;2.80;;;7.70;71.30;;;;;;4975876;28;20066;-79
2024/03/27 06:42:40;;;;;;;4.00;2.80;;;8.00;69.10;;;;;;4994330;28;20010;-78
2024/03/27 06:45:06;;;;;;;5.72;2.70;;;8.20;67.90;;;;;;4994379;28;20042;-79
2024/03/27 06:47:32;;;;;;;3.80;2.25;;;8.40;67.50;;;;;;4976108;28;20018;-79
2024/03/27 06:49:58;;;;;;;3.60;2.55;;;8.50;66.20;;;;;;4977759;28;20070;-79
2024/03/27 06:52:24;;;;;;;8.10;2.72;;;8.70;65.10;;;;;;4976551;28;20041;-80
2024/03/27 06:54:50;;;;;;;4.28;2.38;;;8.90;64.00;;;;;;4992511;28;20030;-78
2024/03/27 06:57:16;;;;;;;3.72;2.65;;;9.10;63.30;;;;;;4976449;28;20388;-79
2024/03/27 06:59:42;;;;;;;3.50;3.17;;;9.20;63.00;;;;;;4974462;28;20029;-80
2024/03/27 07:02:07;;;;;;;7.75;2.75;;;9.40;63.90;;;;;;4975108;28;20029;-80
2024/03/27 07:04:33;;;;;;;2.22;2.03;;;9.60;63.30;;;;;;4975249;28;20034;-79
2024/03/27 07:06:59;;;;;;;6.93;2.60;;;9.80;62.00;;;;;;4993673;28;20145;-79
2024/03/27 07:09:25;;;;;;;4.80;2.28;;;10.00;62.30;;;;;;4975247;28;20081;-78
2024/03/27 07:11:51;;;;;;;3.45;2.70;;;10.10;61.30;;;;;;4993606;28;20030;-79
2024/03/27 07:14:17;;;;;;;8.50;2.88;;;10.30;61.50;;;;;;4974448;28;20030;-79
2024/03/27 07:16:43;;;;;;;5.15;2.70;;;10.40;60.60;;;;;;4974470;28;20054;-78
2024/03/27 07:19:12;;;;;;;4.40;2.50;;;10.70;61.60;;;;;;4975359;28;20053;-78
2024/03/27 07:21:38;;;;;;;5.25;2.92;;;10.70;61.20;;;;;;4975836;28;20026;-79
2024/03/27 07:24:04;;;;;;;5.20;2.60;;;10.80;60.40;;;;;;4976138;28;20081;-79
2024/03/27 07:26:32;;;;;;;5.47;2.72;;;10.90;60.10;;;;;;4974625;28;20081;-79
2024/03/27 07:28:58;;;;;;;5.60;2.50;;;11.10;60.20;;;;;;4992809;28;20377;-79
2024/03/27 07:31:23;;;;;;;4.18;2.17;;;11.20;59.60;;;;;;4974817;28;20033;-78
2024/03/27 07:33:49;;;;;;;4.22;2.30;;;11.40;59.60;;;;;;4992579;28;20034;-78
2024/03/27 07:36:15;;;;;;;3.63;2.45;;;11.50;59.60;;;;;;4991399;28;20085;-78
2024/03/27 07:38:40;;;;;;;6.90;2.33;;;11.70;59.20;;;;;;4992204;28;20113;-77
2024/03/27 07:41:06;;;;;;;3.08;2.60;;;11.80;59.40;;;;;;4990550;28;20497;-78
2024/03/27 07:43:32;;;;;;;2.60;2.15;;;12.00;58.80;;;;;;4975457;28;20457;-78
2024/03/27 07:46:07;;;;;;;5.60;2.92;;;12.20;58.70;;;;;;4987682;28;20039;-78
2024/03/27 07:48:33;;;;;;;4.60;2.78;;;12.30;58.60;;;;;;4990561;28;20046;-78
2024/03/27 07:50:59;;;;;;;10.95;2.35;;;12.50;57.90;;;;;;4991282;28;20061;-78
2024/03/27 07:53:25;;;;;;;6.95;2.75;;;12.70;58.70;;;;;;4973530;28;20548;-78
2024/03/27 07:55:57;;;;;;;6.22;2.92;;;12.80;58.20;;;;;;4971345;28;20456;-79
2024/03/27 07:58:23;;;;;;;;;;;13.00;58.50;;;;;;4966604;28;20499;-77
2024/03/27 08:00:52;;;;;;;4.38;2.65;;;13.30;58.50;;;;;;4972954;28;19959;-77
2024/03/27 08:03:18;;;;;;;4.60;2.92;;;13.40;59.10;;;;;;4973048;28;20031;-77
2024/03/27 08:05:44;;;;;;;9.55;2.92;;;13.60;59.50;;;;;;4973262;28;20051;-77
2024/03/27 08:08:11;;;;;;;4.72;2.80;;;13.70;58.60;;;;;;4974020;28;20023;-76
2024/03/27 08:10:42;;;;;;;5.07;2.53;;;13.90;59.00;;;;;;4973082;28;20037;-77
2024/03/27 08:13:08;;;;;;;3.80;2.23;;;14.10;59.30;;;;;;4973583;28;20350;-77
2024/03/27 08:15:40;;;;;;;4.13;2.20;;;14.10;60.00;;;;;;4972606;28;20312;-77
2024/03/27 08:18:06;;;;;;;3.80;2.10;;;14.20;59.50;;;;;;4990780;28;20487;-78
2024/03/27 08:20:32;;;;;;;4.40;1.88;;;14.30;59.60;;;;;;4990157;28;20109;-78
2024/03/27 08:22:57;;;;;;;2.97;2.00;;;14.40;59.40;;;;;;4974410;28;20065;-77
2024/03/27 08:25:23;;;;;;;3.97;2.03;;;14.50;59.20;;;;;;4974097;28;20030;-77
2024/03/27 08:27:49;;;;;;;4.90;2.50;;;14.50;59.40;;;;;;4991889;28;20033;-78
2024/03/27 08:30:14;;;;;;;3.97;2.35;;;14.60;58.90;;;;;;4973758;28;20047;-80
2024/03/27 08:32:40;;;;;;;6.75;2.85;;;14.70;59.50;;;;;;4975179;28;20037;-79
2024/03/27 08:35:06;;;;;;;2.92;1.77;;;14.80;58.70;;;;;;4991486;28;20050;-79
2024/03/27 08:37:31;;;;;;;3.00;2.13;;;14.90;59.70;;;;;;4973857;28;20026;-79
2024/03/27 08:39:57;;;;;;;3.65;2.22;;;14.90;58.80;;;;;;4991285;28;20327;-77
2024/03/27 08:42:22;;;;;;;3.80;1.92;;;15.10;59.20;;;;;;4970686;28;20054;-78
2024/03/27 08:44:48;;;;;;;8.65;3.00;;;15.10;59.00;;;;;;4973961;28;20046;-79
2024/03/27 08:47:14;;;;;;;3.13;2.78;;;15.30;58.90;;;;;;4991277;28;20026;-79
2024/03/27 08:49:39;;;;;;;4.65;2.50;;;15.40;59.30;;;;;;4990410;28;20034;-78
2024/03/27 08:52:05;;;;;;;4.95;2.03;;;15.50;59.20;;;;;;4972855;28;20026;-77
2024/03/27 08:54:31;;;;;;;5.60;2.20;;;15.70;59.30;;;;;;4973076;28;20022;-77
2024/03/27 08:56:56;;;;;;;6.20;2.58;;;15.80;58.50;;;;;;4991007;28;20049;-79
2024/03/27 08:59:22;;;;;;;4.22;2.25;;;15.80;58.80;;;;;;4985405;28;20918;-77
2024/03/27 09:01:47;;;;;;;4.10;2.20;;;15.90;58.60;;;;;;4972591;28;20104;-77
2024/03/27 09:04:13;;;;;;;3.90;2.00;;;16.00;58.50;;;;;;4972805;28;20061;-77
2024/03/27 09:06:39;;;;;;;3.67;1.98;;;16.00;58.70;;;;;;4990285;28;20042;-79
2024/03/27 09:09:05;;;;;;;2.45;2.20;;;16.00;58.60;;;;;;4990592;28;20023;-78
2024/03/27 09:11:30;;;;;;;4.22;2.10;;;16.10;58.50;;;;;;4972823;28;20067;-78
2024/03/27 09:13:56;;;;;;;3.97;1.80;;;16.10;58.70;;;;;;4973171;28;20072;-78
2024/03/27 09:16:22;;;;;;;4.35;2.10;;;16.20;58.40;;;;;;4971793;28;20049;-78
2024/03/27 09:18:48;;;;;;;5.60;2.40;;;16.20;58.30;;;;;;4973869;28;20428;-78
2024/03/27 09:21:14;;;;;;;2.92;1.95;;;16.20;58.10;;;;;;4973607;28;20023;-78
2024/03/27 09:23:39;;;;;;;3.42;1.70;;;16.30;58.60;;;;;;4974168;28;20473;-78
2024/03/27 09:26:05;;;;;;;4.63;2.10;;;16.40;58.00;;;;;;4991600;28;20034;-78
2024/03/27 09:28:31;;;;;;;1.65;1.50;;;16.40;57.80;;;;;;4975138;28;20476;-79
2024/03/27 09:31:02;;;;;;;2.40;1.50;;;16.60;59.10;;;;;;4991395;28;20027;-78
2024/03/27 09:33:28;;;;;;;2.45;1.48;;;16.60;58.10;;;;;;4991729;28;20038;-79
2024/03/27 09:35:54;;;;;;;1.88;1.60;;;16.60;58.70;;;;;;4973745;28;20022;-79
2024/03/27 09:38:19;;;;;;;2.65;1.60;;;16.70;58.00;;;;;;4986771;28;20136;-79
2024/03/27 09:40:56;;;;;;;4.55;1.60;;;16.70;58.50;;;;;;4970631;28;20080;-79
2024/03/27 09:43:24;;;;;;;1.27;1.10;;;16.90;57.70;;;;;;4995703;28;20029;-78
2024/03/27 09:45:51;;;;;;;3.45;1.75;;;16.80;57.80;;;;;;4986582;28;20105;-79
2024/03/27 09:48:17;;;;;;;3.83;1.63;;;16.90;58.20;;;;;;4971028;28;20026;-79
2024/03/27 09:50:44;;;;;;;3.28;1.20;;;16.90;58.10;;;;;;4990395;28;20022;-79
2024/03/27 09:53:14;;;;;;;1.88;1.27;;;17.00;58.30;;;;;;4974368;28;20065;-79
2024/03/27 09:55:40;;;;;;;1.77;1.20;;;17.10;58.80;;;;;;4975036;28;20027;-79
2024/03/27 09:58:14;;;;;;;3.97;1.20;;;17.10;57.90;;;;;;4981412;28;20073;-79
2024/03/27 10:00:41;;;;;;;1.02;0.90;;;17.20;57.80;;;;;;4995163;28;20058;-79
2024/03/27 10:03:07;;;;;;;1.38;1.27;;;17.30;57.70;;;;;;5004025;28;20024;-79
2024/03/27 10:05:34;;;;;;;1.58;1.40;;;17.20;57.30;;;;;;5009864;28;20034;-79
2024/03/27 10:08:02;;;;;;;2.83;1.40;;;17.20;56.80;;;;;;5013166;28;20022;-79
2024/03/27 10:10:29;;;;;;;3.00;1.30;;;17.30;57.50;;;;;;4989163;28;20026;-79
2024/03/27 10:12:55;;;;;;;2.15;1.00;;;17.30;57.60;;;;;;4994779;28;20447;-79
2024/03/27 10:15:21;;;;;;;4.25;1.23;;;17.40;57.10;;;;;;4977686;28;20539;-79
2024/03/27 10:17:47;;;;;;;4.53;1.30;;;17.40;56.70;;;;;;4995255;28;20026;-79
2024/03/27 10:20:13;;;;;;;3.33;1.50;;;17.40;57.10;;;;;;4977593;28;20081;-79
2024/03/27 10:22:39;;;;;;;1.30;1.20;;;17.40;56.30;;;;;;4977777;28;20022;-79
2024/03/27 10:25:07;;;;;;;2.17;1.20;;;17.40;56.50;;;;;;4994851;28;20035;-79
2024/03/27 10:27:33;;;;;;;1.85;1.00;;;17.40;56.20;;;;;;4977773;28;20030;-79
2024/03/27 10:29:59;;;;;;;2.58;1.40;;;17.50;56.90;;;;;;4971466;28;20031;-79
2024/03/27 10:32:25;;;;;;;0.95;0.95;;;17.50;57.30;;;;;;4975644;28;20097;-79
2024/03/27 10:34:51;;;;;;;3.83;1.60;;;17.40;56.00;;;;;;4958240;28;20030;-79
2024/03/27 10:37:18;;;;;;;1.75;1.42;;;17.40;56.40;;;;;;4975493;28;20018;-79
2024/03/27 10:39:51;;;;;;;1.80;1.70;;;17.50;56.10;;;;;;4993411;28;20015;-79
2024/03/27 10:42:22;;;;;;;1.88;1.70;;;17.60;56.30;;;;;;4977023;28;20049;-79
2024/03/27 10:44:50;;;;;;;4.07;1.90;;;17.70;56.60;;;;;;4977236;28;20030;-79
2024/03/27 10:47:21;;;;;;;2.78;1.88;;;17.80;57.00;;;;;;4994736;28;20182;-79
2024/03/27 10:49:47;;;;;;;3.53;1.90;;;17.80;56.30;;;;;;4994639;28;20023;-79
2024/03/27 10:52:14;;;;;;;4.28;2.10;;;17.80;55.80;;;;;;4976986;28;20038;-79
2024/03/27 10:54:43;;;;;;;3.25;1.65;;;17.70;55.60;;;;;;4993207;28;20019;-79
2024/03/27 10:57:10;;;;;;;4.05;1.98;;;17.70;54.60;;;;;;4994451;28;20023;-79
2024/03/27 10:59:39;;;;;;;4.00;2.10;;;17.80;55.20;;;;;;4994566;28;20022;-79
2024/03/27 11:02:09;;;;;;;3.33;1.65;;;17.80;55.10;;;;;;4978365;28;20026;-79
2024/03/27 11:04:40;;;;;;;2.20;1.83;;;17.80;55.30;;;;;;5013887;28;20026;-78
2024/03/27 11:07:09;;;;;;;3.35;2.40;;;17.80;54.70;;;;;;5012736;28;20032;-79
2024/03/27 11:09:36;;;;;;;3.88;1.80;;;17.60;55.10;;;;;;5013942;28;20025;-79
2024/03/27 11:12:03;;;;;;;2.90;1.95;;;17.60;55.40;;;;;;5013874;28;20118;-79
2024/03/27 11:14:35;;;;;;;4.72;1.80;;;17.70;55.50;;;;;;5005653;28;20038;-78
2024/03/27 11:17:02;;;;;;;;;;;17.80;54.30;;;;;;4997552;28;20089;-79
2024/03/27 11:19:37;;;;;;;3.85;2.25;;;17.80;53.80;;;;;;4976015;28;19917;-79
2024/03/27 11:22:16;;;;;;;4.72;2.53;;;17.80;54.50;;;;;;4975689;28;20038;-79
2024/03/27 11:24:43;;;;;;;5.32;3.17;;;17.70;54.60;;;;;;4988017;28;20113;-78
2024/03/27 11:27:10;;;;;;;5.18;2.63;;;17.70;56.60;;;;;;4980460;28;20113;-78
2024/03/27 11:29:37;;;;;;;5.28;2.05;;;17.70;56.50;;;;;;4961291;28;20042;-79
2024/03/27 11:32:05;;;;;;;4.22;2.40;;;17.60;56.30;;;;;;4976343;28;20202;-78
2024/03/27 11:34:31;;;;;;;5.05;2.92;;;17.60;56.50;;;;;;4976436;28;20054;-79
2024/03/27 11:36:57;;;;;;;5.15;2.83;;;17.50;57.40;;;;;;4976403;28;20057;-79
2024/03/27 11:39:24;;;;;;;4.72;2.38;;;17.50;57.00;;;;;;4976256;28;20449;-78
2024/03/27 11:41:50;;;;;;;6.90;2.78;;;17.50;57.50;;;;;;4976269;28;20022;-79
2024/03/27 11:44:16;;;;;;;7.65;2.88;;;17.50;57.90;;;;;;4975926;28;20062;-78
2024/03/27 11:46:42;;;;;;;7.00;2.90;;;17.50;57.70;;;;;;4976217;28;20463;-79
2024/03/27 11:49:08;;;;;;;5.72;2.92;;;17.50;57.60;;;;;;4976057;28;20026;-79
2024/03/27 11:51:35;;;;;;;6.78;2.72;;;17.40;57.90;;;;;;4976093;28;20045;-79
2024/03/27 11:54:00;;;;;;;7.72;3.05;;;17.40;58.10;;;;;;4975899;28;20022;-79
2024/03/27 11:56:33;;;;;;;4.20;2.58;;;17.50;58.60;;;;;;4993524;28;20153;-79
2024/03/27 11:59:00;;;;;;;4.65;2.75;;;17.50;57.80;;;;;;4993126;28;20038;-79
2024/03/27 12:01:28;;;;;;;3.88;2.80;;;17.60;57.90;;;;;;4993490;28;20108;-79
2024/03/27 12:03:54;;;;;;;8.50;3.25;;;17.40;57.30;;;;;;4993119;28;20481;-78
2024/03/27 12:06:21;;;;;;;5.20;2.75;;;17.40;58.00;;;;;;4993235;28;20109;-79
2024/03/27 12:08:50;;;;;;;4.80;2.80;;;17.50;58.60;;;;;;4975826;28;20025;-79
2024/03/27 12:11:19;;;;;;;6.93;3.25;;;17.50;58.30;;;;;;4993253;28;20437;-79
2024/03/27 12:13:45;;;;;;;7.97;2.78;;;17.40;58.60;;;;;;4992429;28;20465;-79
2024/03/27 12:16:12;;;;;;;4.13;2.95;;;17.50;59.60;;;;;;4992976;28;20088;-79
2024/03/27 12:18:38;;;;;;;6.45;3.97;;;17.70;59.80;;;;;;4993184;28;20023;-79
2024/03/27 12:21:15;;;;;;;3.67;2.88;;;17.70;58.40;;;;;;4975093;28;20037;-79
2024/03/27 12:23:43;;;;;;;8.02;3.33;;;17.60;58.50;;;;;;4975474;28;20137;-79
2024/03/27 12:26:16;;;;;;;5.07;2.55;;;17.70;58.50;;;;;;4975334;28;20038;-79
2024/03/27 12:28:49;;;;;;;3.90;2.70;;;17.70;59.10;;;;;;4993088;28;20088;-79
2024/03/27 12:31:24;;;;;;;5.20;3.08;;;17.70;57.90;;;;;;4975372;28;20030;-79
2024/03/27 12:33:49;;;;;;;5.72;2.83;;;17.90;57.80;;;;;;4992807;28;20033;-79
2024/03/27 12:36:15;;;;;;;5.32;2.88;;;18.10;57.70;;;;;;4975247;28;20737;-79
2024/03/27 12:38:41;;;;;;;6.72;2.65;;;18.20;58.10;;;;;;4987664;28;20014;-79
2024/03/27 12:41:07;;;;;;;3.80;2.50;;;18.20;57.80;;;;;;4991941;28;20023;-79
2024/03/27 12:43:33;;;;;;;3.85;2.40;;;18.20;57.10;;;;;;4975501;28;20550;-79
2024/03/27 12:45:59;;;;;;;5.72;2.45;;;18.30;57.90;;;;;;4992613;28;20041;-79